Time;durP1;ratioP1;P1;durP2;ratioP2;P2;SDS_P1;SDS_P2;PMS_P1;PMS_P2;Temp;Humidity;BMP_temperature;BMP_pressure;BME280_temperature;BME280_humidity;BME280_pressure;Samples;Min_cycle;Max_cycle;Signal;HPM_P1;HPM_P2
2021/06/26 00:00:24;;;;;;;60.67;29.90;;;;;;;-145.50;100.00;65435.88;4885660;29;20088;-48
2021/06/26 00:02:50;;;;;;;62.67;31.05;;;;;;;-145.50;100.00;65435.88;4891198;29;20084;-48
2021/06/26 00:05:17;;;;;;;61.67;31.92;;;;;;;-145.50;100.00;65435.88;4889076;29;20099;-48
2021/06/26 00:07:43;;;;;;;60.08;30.77;;;;;;;-145.50;100.00;65435.88;4885763;29;20107;-49
2021/06/26 00:10:11;;;;;;;56.72;30.85;;;;;;;-145.50;100.00;65435.88;4881439;29;20162;-48
2021/06/26 00:12:37;;;;;;;61.45;32.08;;;;;;;-145.50;100.00;65435.88;4877352;29;20754;-48
2021/06/26 00:15:09;;;;;;;58.08;30.65;;;;;;;-145.50;100.00;65435.88;4892069;29;20048;-49
2021/06/26 00:17:36;;;;;;;59.28;30.73;;;;;;;-145.50;100.00;65435.88;4887302;29;20080;-48
2021/06/26 00:20:03;;;;;;;54.13;29.40;;;;;;;-145.50;100.00;65435.88;4891815;29;20087;-48
2021/06/26 00:22:30;;;;;;;63.50;32.45;;;;;;;-145.50;100.00;65435.88;4875127;29;20091;-48
2021/06/26 00:24:56;;;;;;;64.50;31.00;;;;;;;-145.50;100.00;65435.88;4878950;29;20088;-49
2021/06/26 00:27:23;;;;;;;60.17;30.95;;;;;;;-145.50;100.00;65435.88;4889060;29;20254;-48
2021/06/26 00:29:49;;;;;;;62.17;30.45;;;;;;;-145.50;100.00;65435.88;4886106;29;20096;-47
2021/06/26 00:32:16;;;;;;;60.50;31.77;;;;;;;-145.50;100.00;65435.88;4891214;29;20120;-48
2021/06/26 00:34:42;;;;;;;56.92;30.55;;;;;;;-145.50;100.00;65435.88;4874412;29;20057;-48
2021/06/26 00:37:13;;;;;;;59.15;29.90;;;;;;;-145.50;100.00;65435.88;4890962;29;20482;-48
2021/06/26 00:39:39;;;;;;;55.90;30.33;;;;;;;-145.50;100.00;65435.88;4887094;29;20095;-48
2021/06/26 00:42:06;;;;;;;60.45;30.45;;;;;;;-145.50;100.00;65435.88;4882407;29;20096;-48
2021/06/26 00:44:33;;;;;;;63.15;30.30;;;;;;;-145.50;100.00;65435.88;4898650;29;20090;-48
2021/06/26 00:47:07;;;;;;;56.13;28.70;;;;;;;-145.50;100.00;65435.88;4887778;29;20516;-48
2021/06/26 00:49:34;;;;;;;52.13;29.20;;;;;;;-145.50;100.00;65435.88;4893953;29;20107;-47
2021/06/26 00:52:00;;;;;;;52.95;27.58;;;;;;;-145.50;100.00;65435.88;4877650;29;20088;-49
2021/06/26 00:54:27;;;;;;;49.70;26.15;;;;;;;-145.50;100.00;65435.88;4887880;29;20144;-49
2021/06/26 00:56:54;;;;;;;54.33;28.23;;;;;;;-145.50;100.00;65435.88;4886041;29;20193;-47
2021/06/26 00:59:22;;;;;;;55.38;27.92;;;;;;;-145.50;100.00;65435.88;4872565;29;20086;-48
2021/06/26 01:01:48;;;;;;;53.63;25.75;;;;;;;-145.50;100.00;65435.88;4881755;29;20075;-48
2021/06/26 01:04:15;;;;;;;45.20;24.23;;;;;;;-145.50;100.00;65435.88;4883662;29;20056;-48
2021/06/26 01:06:41;;;;;;;44.55;24.27;;;;;;;-145.50;100.00;65435.88;4887269;29;20593;-47
2021/06/26 01:09:08;;;;;;;45.28;24.55;;;;;;;-145.50;100.00;65435.88;4880549;29;20144;-51
2021/06/26 01:11:35;;;;;;;47.40;25.05;;;;;;;-145.50;100.00;65435.88;4891011;29;20092;-47
2021/06/26 01:14:02;;;;;;;45.70;23.77;;;;;;;-145.50;100.00;65435.88;4885124;29;20465;-49
2021/06/26 01:16:28;;;;;;;45.45;23.80;;;;;;;-145.50;100.00;65435.88;4874911;29;20057;-50
2021/06/26 01:18:55;;;;;;;48.30;23.73;;;;;;;-145.50;100.00;65435.88;4891826;29;20092;-49
2021/06/26 01:21:21;;;;;;;50.72;24.23;;;;;;;-145.50;100.00;65435.88;4880830;29;20139;-47
2021/06/26 01:23:51;;;;;;;49.08;25.33;;;;;;;-145.50;100.00;65435.88;4898864;29;20048;-50
2021/06/26 01:26:19;;;;;;;53.47;27.30;;;;;;;-145.50;100.00;65435.88;4887463;29;20072;-47
2021/06/26 01:28:45;;;;;;;58.83;29.83;;;;;;;-145.50;100.00;65435.88;4902616;29;20152;-48
2021/06/26 01:31:11;;;;;;;56.13;29.17;;;;;;;-145.50;100.00;65435.88;4872873;29;20092;-48
2021/06/26 01:33:38;;;;;;;61.88;30.02;;;;;;;-145.50;100.00;65435.88;4887463;29;20048;-48
2021/06/26 01:36:05;;;;;;;61.78;29.23;;;;;;;-145.50;100.00;65435.88;4887488;29;20163;-48
2021/06/26 01:38:31;;;;;;;65.05;31.77;;;;;;;-145.50;100.00;65435.88;4868993;29;20511;-48
2021/06/26 01:40:58;;;;;;;70.13;34.00;;;;;;;-145.50;100.00;65435.88;4890166;29;20139;-48
2021/06/26 01:43:24;;;;;;;72.43;34.90;;;;;;;-145.50;100.00;65435.88;4885388;29;20091;-47
2021/06/26 01:45:51;;;;;;;74.47;35.75;;;;;;;-145.50;100.00;65435.88;4891056;29;20138;-48
2021/06/26 01:48:21;;;;;;;69.28;34.08;;;;;;;-145.50;100.00;65435.88;4883067;29;20052;-48
2021/06/26 01:50:47;;;;;;;;;;;;;;;-145.50;100.00;65435.88;4887360;29;20160;-48
2021/06/26 01:53:18;;;;;;;67.32;33.25;;;;;;;-145.50;100.00;65435.88;4888059;29;19981;-48
2021/06/26 01:55:45;;;;;;;71.78;33.97;;;;;;;-145.50;100.00;65435.88;4889295;29;20560;-48
2021/06/26 01:58:11;;;;;;;70.20;34.25;;;;;;;-145.50;100.00;65435.88;4886370;29;20079;-47
2021/06/26 02:00:38;;;;;;;73.32;34.88;;;;;;;-145.50;100.00;65435.88;4884544;29;20084;-47
2021/06/26 02:03:05;;;;;;;71.22;34.78;;;;;;;-145.50;100.00;65435.88;4881820;29;20052;-47
2021/06/26 02:05:31;;;;;;;72.00;34.38;;;;;;;-145.50;100.00;65435.88;4879576;29;20152;-47
2021/06/26 02:08:01;;;;;;;67.05;32.47;;;;;;;-145.50;100.00;65435.88;4887164;29;20152;-47
2021/06/26 02:10:27;;;;;;;68.03;32.67;;;;;;;-145.50;100.00;65435.88;4885650;29;20057;-49
2021/06/26 02:12:54;;;;;;;65.10;31.88;;;;;;;-145.50;100.00;65435.88;4890659;29;20052;-49
2021/06/26 02:15:21;;;;;;;66.57;30.95;;;;;;;-145.50;100.00;65435.88;4887684;29;20056;-48
2021/06/26 02:17:47;;;;;;;61.88;30.83;;;;;;;-145.50;100.00;65435.88;4881097;29;20131;-49
2021/06/26 02:20:14;;;;;;;62.40;30.65;;;;;;;-145.50;100.00;65435.88;4890446;29;20187;-50
2021/06/26 02:22:42;;;;;;;65.45;31.10;;;;;;;-145.50;100.00;65435.88;4882807;29;20397;-51
2021/06/26 02:25:09;;;;;;;62.78;30.02;;;;;;;-145.50;100.00;65435.88;4889346;29;20807;-47
2021/06/26 02:27:36;;;;;;;66.90;31.73;;;;;;;-145.50;100.00;65435.88;4881859;29;20084;-47
2021/06/26 02:30:07;;;;;;;66.18;32.00;;;;;;;-145.50;100.00;65435.88;4885530;29;20056;-49
2021/06/26 02:32:34;;;;;;;66.38;32.25;;;;;;;-145.50;100.00;65435.88;4885698;29;20552;-48
2021/06/26 02:35:00;;;;;;;66.20;32.08;;;;;;;-145.50;100.00;65435.88;4885871;29;20112;-49
2021/06/26 02:37:27;;;;;;;63.95;31.50;;;;;;;-145.50;100.00;65435.88;4892895;29;20505;-47
2021/06/26 02:39:54;;;;;;;66.70;33.25;;;;;;;-145.50;100.00;65435.88;4883336;29;20139;-48
2021/06/26 02:42:20;;;;;;;63.28;32.92;;;;;;;-145.50;100.00;65435.88;4890003;29;20135;-47
2021/06/26 02:44:47;;;;;;;65.47;33.42;;;;;;;-145.50;100.00;65435.88;4876701;29;20522;-48
2021/06/26 02:47:13;;;;;;;63.80;31.60;;;;;;;-145.50;100.00;65435.88;4888318;29;20075;-47
2021/06/26 02:49:40;;;;;;;60.78;30.73;;;;;;;-145.50;100.00;65435.88;4888290;29;20092;-48
2021/06/26 02:52:06;;;;;;;61.95;31.35;;;;;;;-145.50;100.00;65435.88;4883824;29;20056;-48
2021/06/26 02:54:33;;;;;;;58.97;29.33;;;;;;;-145.50;100.00;65435.88;4890681;29;20535;-50
2021/06/26 02:57:00;;;;;;;68.70;31.95;;;;;;;-145.50;100.00;65435.88;4876243;29;20151;-48
2021/06/26 02:59:27;;;;;;;63.42;31.67;;;;;;;-145.50;100.00;65435.88;4863799;29;20071;-49
2021/06/26 03:01:54;;;;;;;64.50;33.15;;;;;;;-145.50;100.00;65435.88;4878732;29;20092;-48
2021/06/26 03:04:20;;;;;;;60.60;30.52;;;;;;;-145.50;100.00;65435.88;4890923;29;20109;-48
2021/06/26 03:06:47;;;;;;;58.40;30.23;;;;;;;-145.50;100.00;65435.88;4884950;29;20557;-48
2021/06/26 03:09:13;;;;;;;60.17;30.08;;;;;;;-145.50;100.00;65435.88;4889096;29;20155;-48
2021/06/26 03:11:40;;;;;;;59.60;30.75;;;;;;;-145.50;100.00;65435.88;4886267;29;20083;-48
2021/06/26 03:14:06;;;;;;;62.65;32.28;;;;;;;-145.50;100.00;65435.88;4878045;29;20751;-48
2021/06/26 03:16:32;;;;;;;57.38;29.98;;;;;;;-145.50;100.00;65435.88;4890141;29;20136;-49
2021/06/26 03:18:59;;;;;;;67.32;33.22;;;;;;;-145.50;100.00;65435.88;4881572;29;20206;-47
2021/06/26 03:21:25;;;;;;;63.92;32.80;;;;;;;-145.50;100.00;65435.88;4888796;29;20131;-47
2021/06/26 03:23:52;;;;;;;65.68;32.72;;;;;;;-145.50;100.00;65435.88;4881558;29;20080;-48
2021/06/26 03:26:18;;;;;;;73.15;33.72;;;;;;;-145.50;100.00;65435.88;4885000;29;20117;-48
2021/06/26 03:28:45;;;;;;;64.45;32.17;;;;;;;-145.50;100.00;65435.88;4886939;29;20135;-48
2021/06/26 03:31:12;;;;;;;59.40;29.98;;;;;;;-145.50;100.00;65435.88;4880223;29;20246;-51
2021/06/26 03:33:39;;;;;;;58.53;30.47;;;;;;;-145.50;100.00;65435.88;4888051;29;20477;-49
2021/06/26 03:36:06;;;;;;;53.15;28.13;;;;;;;-145.50;100.00;65435.88;4883160;29;20156;-48
2021/06/26 03:38:32;;;;;;;54.92;28.05;;;;;;;-145.50;100.00;65435.88;4871819;29;20957;-49
2021/06/26 03:40:59;;;;;;;53.78;28.15;;;;;;;-145.50;100.00;65435.88;4877754;29;20124;-48
2021/06/26 03:43:25;;;;;;;62.28;31.23;;;;;;;-145.50;100.00;65435.88;4889006;29;20060;-49
2021/06/26 03:45:52;;;;;;;61.15;30.83;;;;;;;-145.50;100.00;65435.88;4891786;29;20063;-48
2021/06/26 03:48:19;;;;;;;74.10;33.85;;;;;;;-145.50;100.00;65435.88;4891888;29;20827;-48
2021/06/26 03:50:45;;;;;;;71.38;33.78;;;;;;;-145.50;100.00;65435.88;4892402;29;20608;-47
2021/06/26 03:53:12;;;;;;;66.80;33.95;;;;;;;-145.50;100.00;65435.88;4883092;29;20152;-49
2021/06/26 03:55:38;;;;;;;70.25;34.85;;;;;;;-145.50;100.00;65435.88;4893500;29;20144;-48
2021/06/26 03:58:05;;;;;;;74.38;36.28;;;;;;;-145.50;100.00;65435.88;4885161;29;20180;-49
2021/06/26 04:00:31;;;;;;;84.40;38.60;;;;;;;-145.50;100.00;65435.88;4893253;29;20052;-48
2021/06/26 04:02:59;;;;;;;80.80;38.33;;;;;;;-145.50;100.00;65435.88;4884985;29;20053;-47
2021/06/26 04:05:25;;;;;;;84.47;39.05;;;;;;;-145.50;100.00;65435.88;4889166;29;20468;-48
2021/06/26 04:07:51;;;;;;;89.30;40.00;;;;;;;-145.50;100.00;65435.88;4889266;29;20099;-48
2021/06/26 04:10:18;;;;;;;91.18;40.97;;;;;;;-145.50;100.00;65435.88;4874497;29;20089;-48
2021/06/26 04:12:44;;;;;;;94.97;42.03;;;;;;;-145.50;100.00;65435.88;4891669;29;20139;-49
2021/06/26 04:15:11;;;;;;;88.57;39.78;;;;;;;-145.50;100.00;65435.88;4897931;29;20066;-51
2021/06/26 04:17:38;;;;;;;95.50;43.03;;;;;;;-145.50;100.00;65435.88;4878440;29;20144;-51
2021/06/26 04:20:05;;;;;;;101.78;43.90;;;;;;;-145.50;100.00;65435.88;4863717;29;20053;-48
2021/06/26 04:22:32;;;;;;;89.10;41.03;;;;;;;-145.50;100.00;65435.88;4871284;29;20103;-48
2021/06/26 04:24:58;;;;;;;98.50;41.95;;;;;;;-145.50;100.00;65435.88;4874930;29;20485;-48
2021/06/26 04:27:25;;;;;;;100.55;41.75;;;;;;;-145.50;100.00;65435.88;4870049;29;20168;-48
2021/06/26 04:29:51;;;;;;;95.80;41.60;;;;;;;-145.50;100.00;65435.88;4880836;29;20536;-48
2021/06/26 04:32:18;;;;;;;94.72;42.40;;;;;;;-145.50;100.00;65435.88;4886677;29;20096;-48
2021/06/26 04:34:44;;;;;;;92.50;41.55;;;;;;;-145.50;100.00;65435.88;4893080;29;20136;-48
2021/06/26 04:37:11;;;;;;;102.55;41.33;;;;;;;-145.50;100.00;65435.88;4875997;29;20064;-48
2021/06/26 04:39:37;;;;;;;87.93;39.42;;;;;;;-145.50;100.00;65435.88;4878875;29;20060;-49
2021/06/26 04:42:04;;;;;;;85.93;40.08;;;;;;;-145.50;100.00;65435.88;4889513;29;20091;-48
2021/06/26 04:44:30;;;;;;;81.18;37.97;;;;;;;-145.50;100.00;65435.88;4891097;29;20144;-49
2021/06/26 04:46:57;;;;;;;89.78;41.60;;;;;;;-145.50;100.00;65435.88;4889404;29;20080;-49
2021/06/26 04:49:27;;;;;;;90.28;39.42;;;;;;;-145.50;100.00;65435.88;4870249;29;20787;-49
2021/06/26 04:51:53;;;;;;;89.88;42.50;;;;;;;-145.50;100.00;65435.88;4872896;29;20145;-49
2021/06/26 04:54:20;;;;;;;95.68;40.58;;;;;;;-145.50;100.00;65435.88;4884439;29;20412;-49
2021/06/26 04:56:46;;;;;;;90.78;42.60;;;;;;;-145.50;100.00;65435.88;4894877;29;20064;-49
2021/06/26 04:59:13;;;;;;;89.45;39.50;;;;;;;-145.50;100.00;65435.88;4898118;29;20087;-49
2021/06/26 05:01:39;;;;;;;97.10;40.65;;;;;;;-145.50;100.00;65435.88;4891253;29;20151;-48
2021/06/26 05:04:06;;;;;;;96.68;41.78;;;;;;;-145.50;100.00;65435.88;4888190;29;20094;-48
2021/06/26 05:06:33;;;;;;;89.38;40.80;;;;;;;-145.50;100.00;65435.88;4893539;29;20111;-48
2021/06/26 05:08:59;;;;;;;86.65;39.60;;;;;;;-145.50;100.00;65435.88;4875016;29;20136;-50
2021/06/26 05:11:26;;;;;;;85.22;39.13;;;;;;;-145.50;100.00;65435.88;4885880;29;20087;-50
2021/06/26 05:13:52;;;;;;;84.97;39.50;;;;;;;-145.50;100.00;65435.88;4889086;29;20552;-49
2021/06/26 05:16:19;;;;;;;79.55;38.03;;;;;;;-145.50;100.00;65435.88;4888117;29;20076;-49
2021/06/26 05:18:45;;;;;;;89.68;39.30;;;;;;;-145.50;100.00;65435.88;4881629;29;20495;-49
2021/06/26 05:21:12;;;;;;;83.47;38.08;;;;;;;-145.50;100.00;65435.88;4889555;29;20091;-51
2021/06/26 05:23:38;;;;;;;79.90;38.85;;;;;;;-145.50;100.00;65435.88;4884388;29;20148;-49
2021/06/26 05:26:09;;;;;;;90.45;38.40;;;;;;;-145.50;100.00;65435.88;4888462;29;20450;-49
2021/06/26 05:28:37;;;;;;;83.75;38.20;;;;;;;-145.50;100.00;65435.88;4884645;29;20148;-49
2021/06/26 05:31:04;;;;;;;79.85;37.55;;;;;;;-145.50;100.00;65435.88;4882392;29;20147;-48
2021/06/26 05:33:31;;;;;;;79.25;36.88;;;;;;;-145.50;100.00;65435.88;4882508;29;20139;-49
2021/06/26 05:35:58;;;;;;;77.20;38.13;;;;;;;-145.50;100.00;65435.88;4890956;29;20159;-49
2021/06/26 05:38:25;;;;;;;79.93;37.83;;;;;;;-145.50;100.00;65435.88;4889755;29;20060;-48
2021/06/26 05:40:51;;;;;;;84.25;39.95;;;;;;;-145.50;100.00;65435.88;4883919;29;20479;-49
2021/06/26 05:43:37;;;;;;;75.78;37.45;;;;;;;-145.50;100.00;65435.88;4885265;29;20163;-48
2021/06/26 05:46:03;;;;;;;85.82;40.47;;;;;;;-145.50;100.00;65435.88;4882504;29;20512;-50
2021/06/26 05:48:30;;;;;;;82.75;39.00;;;;;;;-145.50;100.00;65435.88;4899520;29;20061;-49
2021/06/26 05:50:57;;;;;;;82.90;38.53;;;;;;;-145.50;100.00;65435.88;4883787;29;20095;-50
2021/06/26 05:53:23;;;;;;;76.85;38.20;;;;;;;-145.50;100.00;65435.88;4887668;29;20478;-50
2021/06/26 05:55:57;;;;;;;82.68;39.90;;;;;;;-145.50;100.00;65435.88;4886934;29;20139;-50
2021/06/26 05:58:35;;;;;;;81.00;39.85;;;;;;;-145.50;100.00;65435.88;4883945;29;20067;-49
2021/06/26 06:01:10;;;;;;;84.75;39.92;;;;;;;-145.50;100.00;65435.88;4883595;29;20080;-50
2021/06/26 06:03:40;;;;;;;81.25;40.08;;;;;;;-145.50;100.00;65435.88;4883502;29;20056;-49
2021/06/26 06:06:07;;;;;;;92.68;43.10;;;;;;;-145.50;100.00;65435.88;4891025;29;20131;-49
2021/06/26 06:08:33;;;;;;;94.70;43.40;;;;;;;-145.50;100.00;65435.88;4885814;29;20091;-50
2021/06/26 06:11:00;;;;;;;89.80;42.63;;;;;;;-145.50;100.00;65435.88;4887858;29;20140;-49
2021/06/26 06:13:27;;;;;;;86.13;39.85;;;;;;;-145.50;100.00;65435.88;4878020;29;20163;-49
2021/06/26 06:15:53;;;;;;;90.45;43.55;;;;;;;-145.50;100.00;65435.88;4890907;29;20055;-49
2021/06/26 06:18:20;;;;;;;100.30;44.17;;;;;;;-145.50;100.00;65435.88;4892505;29;20052;-52
2021/06/26 06:20:48;;;;;;;97.75;43.22;;;;;;;-145.50;100.00;65435.88;4866224;29;20096;-48
2021/06/26 06:23:35;;;;;;;100.70;44.03;;;;;;;-145.50;100.00;65435.88;4887769;29;20143;-52
2021/06/26 06:26:02;;;;;;;91.10;43.60;;;;;;;-145.50;100.00;65435.88;4878171;29;20088;-51
2021/06/26 06:28:29;;;;;;;91.20;43.25;;;;;;;-145.50;100.00;65435.88;4889954;29;20863;-51
2021/06/26 06:30:55;;;;;;;92.82;42.95;;;;;;;-145.50;100.00;65435.88;4880304;29;20095;-51
2021/06/26 06:33:23;;;;;;;85.47;41.22;;;;;;;-145.50;100.00;65435.88;4888585;29;20100;-50
2021/06/26 06:36:10;;;;;;;85.57;41.22;;;;;;;-145.50;100.00;65435.88;4876764;29;20868;-52
2021/06/26 06:38:37;;;;;;;93.25;42.28;;;;;;;-145.50;100.00;65435.88;4893517;29;20098;-50
2021/06/26 06:41:03;;;;;;;85.07;41.25;;;;;;;-145.50;100.00;65435.88;4882628;29;20151;-50
2021/06/26 06:43:30;;;;;;;81.32;39.03;;;;;;;-145.50;100.00;65435.88;4883026;29;20079;-50
2021/06/26 06:45:57;;;;;;;85.05;41.67;;;;;;;-145.50;100.00;65435.88;4880028;29;20099;-50
2021/06/26 06:48:23;;;;;;;83.63;38.28;;;;;;;-145.50;100.00;65435.88;4876381;29;20147;-50
2021/06/26 06:50:50;;;;;;;83.22;40.05;;;;;;;-145.50;100.00;65435.88;4877578;29;20164;-50
2021/06/26 06:53:16;;;;;;;81.90;38.03;;;;;;;-145.50;100.00;65435.88;4875510;29;20739;-53
2021/06/26 06:55:43;;;;;;;80.05;38.20;;;;;;;-145.50;100.00;65435.88;4882213;29;20194;-51
2021/06/26 06:58:09;;;;;;;79.88;39.97;;;;;;;-145.50;100.00;65435.88;4879363;29;20111;-50
2021/06/26 07:00:36;;;;;;;73.82;36.95;;;;;;;-145.50;100.00;65435.88;4885008;29;20667;-50
2021/06/26 07:03:02;;;;;;;73.75;37.72;;;;;;;-145.50;100.00;65435.88;4875002;29;20088;-49
2021/06/26 07:05:29;;;;;;;68.93;34.47;;;;;;;-145.50;100.00;65435.88;4872254;29;20646;-49
2021/06/26 07:07:56;;;;;;;68.88;37.47;;;;;;;-145.50;100.00;65435.88;4870601;29;20523;-49
2021/06/26 07:10:22;;;;;;;69.75;36.83;;;;;;;-145.50;100.00;65435.88;4867603;29;20512;-49
2021/06/26 07:12:49;;;;;;;67.00;36.05;;;;;;;-145.50;100.00;65435.88;4881890;29;20623;-49
2021/06/26 07:15:15;;;;;;;78.82;36.47;;;;;;;-145.50;100.00;65435.88;4878538;29;20056;-49
2021/06/26 07:17:42;;;;;;;69.75;35.25;;;;;;;-145.50;100.00;65435.88;4890182;29;20059;-50
2021/06/26 07:20:09;;;;;;;69.50;34.78;;;;;;;-145.50;100.00;65435.88;4875785;29;20056;-49
2021/06/26 07:22:36;;;;;;;65.22;34.50;;;;;;;-145.50;100.00;65435.88;4870105;29;20060;-50
2021/06/26 07:25:03;;;;;;;82.75;36.97;;;;;;;-145.50;100.00;65435.88;4879400;29;20476;-52
2021/06/26 07:27:50;;;;;;;69.97;36.03;;;;;;;-145.50;100.00;65435.88;4870940;29;20107;-49
2021/06/26 07:30:17;;;;;;;66.18;35.20;;;;;;;-145.50;100.00;65435.88;4878186;29;20135;-50
2021/06/26 07:33:04;;;;;;;71.70;35.85;;;;;;;-145.50;100.00;65435.88;4877671;29;20093;-50
2021/06/26 07:35:30;;;;;;;68.70;35.93;;;;;;;-145.50;100.00;65435.88;4884946;29;20092;-50
2021/06/26 07:37:58;;;;;;;65.80;34.47;;;;;;;-145.50;100.00;65435.88;4882187;29;20572;-50
2021/06/26 07:40:26;;;;;;;72.18;35.72;;;;;;;-145.50;100.00;65435.88;4887165;29;20473;-49
2021/06/26 07:42:53;;;;;;;67.82;33.22;;;;;;;-145.50;100.00;65435.88;4869621;29;20136;-49
2021/06/26 07:45:20;;;;;;;69.53;35.28;;;;;;;-145.50;100.00;65435.88;4883443;29;20093;-52
2021/06/26 07:47:46;;;;;;;71.22;33.90;;;;;;;-145.50;100.00;65435.88;4876526;29;20063;-51
2021/06/26 07:50:13;;;;;;;67.22;34.95;;;;;;;-145.50;100.00;65435.88;4866748;29;20139;-52
2021/06/26 07:52:39;;;;;;;72.05;36.67;;;;;;;-145.50;100.00;65435.88;4881315;29;20694;-49
2021/06/26 07:55:29;;;;;;;68.18;33.75;;;;;;;-145.50;100.00;65435.88;4887353;29;20143;-49
2021/06/26 07:57:56;;;;;;;62.75;32.35;;;;;;;-145.50;100.00;65435.88;4887502;29;20056;-53
2021/06/26 08:00:23;;;;;;;65.40;33.40;;;;;;;-145.50;100.00;65435.88;4895084;29;20053;-49
2021/06/26 08:02:49;;;;;;;60.15;31.73;;;;;;;-145.50;100.00;65435.88;4880795;29;20143;-49
2021/06/26 08:05:16;;;;;;;73.10;35.05;;;;;;;-145.50;100.00;65435.88;4888734;29;20045;-49
2021/06/26 08:07:51;;;;;;;65.78;35.80;;;;;;;-145.50;100.00;65435.88;4871495;29;20116;-50
2021/06/26 08:10:18;;;;;;;74.70;32.40;;;;;;;-145.50;100.00;65435.88;4886595;29;20062;-49
2021/06/26 08:12:45;;;;;;;69.05;33.50;;;;;;;-145.50;100.00;65435.88;4882336;29;20068;-51
2021/06/26 08:15:12;;;;;;;57.88;31.67;;;;;;;-145.50;100.00;65435.88;4892078;29;20048;-49
2021/06/26 08:17:39;;;;;;;66.93;32.58;;;;;;;-145.50;100.00;65435.88;4881924;29;20135;-51
2021/06/26 08:20:05;;;;;;;64.63;30.98;;;;;;;-145.50;100.00;65435.88;4880469;29;20557;-50
2021/06/26 08:22:52;;;;;;;66.80;33.75;;;;;;;-145.50;100.00;65435.88;4882920;29;20825;-49
2021/06/26 08:25:19;;;;;;;64.38;33.55;;;;;;;-145.50;100.00;65435.88;4880732;29;20049;-48
2021/06/26 08:27:45;;;;;;;61.72;31.80;;;;;;;-145.50;100.00;65435.88;4892402;29;20621;-50
2021/06/26 08:30:13;;;;;;;59.60;30.42;;;;;;;-145.50;100.00;65435.88;4879830;29;20148;-51
2021/06/26 08:32:39;;;;;;;59.03;30.13;;;;;;;-145.50;100.00;65435.88;4882028;29;20098;-50
2021/06/26 08:35:27;;;;;;;55.88;28.13;;;;;;;-145.50;100.00;65435.88;4869203;29;20053;-50
2021/06/26 08:37:55;;;;;;;47.42;26.17;;;;;;;-145.50;100.00;65435.88;4877055;29;20061;-50
2021/06/26 08:40:21;;;;;;;47.65;25.88;;;;;;;-145.50;100.00;65435.88;4877630;29;20144;-50
2021/06/26 08:42:48;;;;;;;49.67;26.05;;;;;;;-145.50;100.00;65435.88;4863683;29;20147;-51
2021/06/26 08:45:17;;;;;;;54.33;26.00;;;;;;;-145.50;100.00;65435.88;4875343;29;20541;-49
2021/06/26 08:47:52;;;;;;;45.08;24.38;;;;;;;-145.50;100.00;65435.88;4877012;29;20144;-50
2021/06/26 08:50:21;;;;;;;43.83;24.33;;;;;;;-145.50;100.00;65435.88;4880340;29;20132;-50
2021/06/26 08:52:48;;;;;;;43.65;24.73;;;;;;;-145.50;100.00;65435.88;4878889;29;20057;-50
2021/06/26 08:55:15;;;;;;;47.53;23.55;;;;;;;-145.50;100.00;65435.88;4885982;29;20048;-50
2021/06/26 08:57:43;;;;;;;50.95;24.67;;;;;;;-145.50;100.00;65435.88;4871660;29;20145;-50
2021/06/26 09:00:37;;;;;;;41.33;23.92;;;;;;;-145.50;100.00;65435.88;4896460;29;20531;-50
2021/06/26 09:03:12;;;;;;;34.60;21.98;;;;;;;-145.50;100.00;65435.88;4874339;29;20117;-49
2021/06/26 09:05:40;;;;;;;37.92;20.73;;;;;;;-145.50;100.00;65435.88;4902245;29;20385;-50
2021/06/26 09:08:09;;;;;;;;;;;;;;;-145.50;100.00;65435.88;4890848;29;20063;-51
2021/06/26 09:10:38;;;;;;;38.92;20.58;;;;;;;-145.50;100.00;65435.88;4887876;29;20015;-50
2021/06/26 09:13:25;;;;;;;36.00;20.67;;;;;;;-145.50;100.00;65435.88;4884958;29;20135;-49
2021/06/26 09:16:11;;;;;;;43.50;22.48;;;;;;;-145.50;100.00;65435.88;4879297;29;20055;-52
2021/06/26 09:18:42;;;;;;;39.90;22.05;;;;;;;-145.50;100.00;65435.88;4877989;29;20068;-51
2021/06/26 09:21:42;;;;;;;38.03;20.85;;;;;;;-145.50;100.00;65435.88;4877392;29;20177;-53
2021/06/26 09:24:09;;;;;;;32.60;19.38;;;;;;;-145.50;100.00;65435.88;4883601;29;20501;-50
2021/06/26 09:26:40;;;;;;;37.97;20.63;;;;;;;-145.50;100.00;65435.88;4881719;29;20553;-50
2021/06/26 09:29:12;;;;;;;40.58;22.48;;;;;;;-145.50;100.00;65435.88;4887633;29;20091;-51
2021/06/26 09:31:49;;;;;;;39.05;22.65;;;;;;;-145.50;100.00;65435.88;4878672;29;20143;-50
2021/06/26 09:34:17;;;;;;;40.97;24.55;;;;;;;-145.50;100.00;65435.88;4878847;29;20056;-50
2021/06/26 09:36:43;;;;;;;38.10;20.98;;;;;;;-145.50;100.00;65435.88;4876900;29;20639;-49
2021/06/26 09:39:11;;;;;;;36.13;22.05;;;;;;;-145.50;100.00;65435.88;4882147;29;20092;-50
2021/06/26 09:41:41;;;;;;;37.20;21.15;;;;;;;-145.50;100.00;65435.88;4874073;29;20087;-50
2021/06/26 09:44:13;;;;;;;36.58;22.35;;;;;;;-145.50;100.00;65435.88;4882864;29;20441;-52
2021/06/26 09:46:47;;;;;;;36.53;22.48;;;;;;;-145.50;100.00;65435.88;4892439;29;20143;-52
2021/06/26 09:49:14;;;;;;;36.75;22.25;;;;;;;-145.50;100.00;65435.88;4884521;29;20068;-51
2021/06/26 09:51:40;;;;;;;41.35;22.00;;;;;;;-145.50;100.00;65435.88;4885947;29;20143;-50
2021/06/26 09:54:09;;;;;;;42.00;23.60;;;;;;;-145.50;100.00;65435.88;4883649;29;20143;-49
2021/06/26 09:56:40;;;;;;;38.78;22.85;;;;;;;-145.50;100.00;65435.88;4889435;29;20048;-50
2021/06/26 09:59:06;;;;;;;44.92;23.95;;;;;;;-145.50;100.00;65435.88;4884557;29;20585;-50
2021/06/26 10:01:36;;;;;;;43.90;23.80;;;;;;;-145.50;100.00;65435.88;4890769;29;20969;-50
2021/06/26 10:04:04;;;;;;;44.67;26.90;;;;;;;-145.50;100.00;65435.88;4885281;29;20489;-48
2021/06/26 10:06:34;;;;;;;;;;;;;;;-145.50;100.00;65435.88;4889764;29;20139;-50
2021/06/26 10:09:05;;;;;;;51.13;27.65;;;;;;;-145.50;100.00;65435.88;4885961;29;20431;-49
2021/06/26 10:11:34;;;;;;;50.30;27.52;;;;;;;-145.50;100.00;65435.88;4880881;29;20580;-51
2021/06/26 10:14:03;;;;;;;43.13;27.65;;;;;;;-145.50;100.00;65435.88;4888818;29;20393;-50
2021/06/26 10:16:52;;;;;;;58.00;30.05;;;;;;;-145.50;100.00;65435.88;4886133;29;20569;-51
2021/06/26 10:19:19;;;;;;;54.47;28.90;;;;;;;-145.50;100.00;65435.88;4890391;29;20806;-50
2021/06/26 10:21:45;;;;;;;55.67;30.85;;;;;;;-145.50;100.00;65435.88;4879600;29;20143;-52
2021/06/26 10:24:13;;;;;;;54.45;31.13;;;;;;;-145.50;100.00;65435.88;4887107;29;20536;-50
2021/06/26 10:26:43;;;;;;;48.75;28.13;;;;;;;-145.50;100.00;65435.88;4875395;29;20915;-50
2021/06/26 10:29:09;;;;;;;49.63;27.80;;;;;;;-145.50;100.00;65435.88;4873611;29;20088;-49
2021/06/26 10:31:41;;;;;;;45.35;25.45;;;;;;;-145.50;100.00;65435.88;4898214;29;20167;-52
2021/06/26 10:34:13;;;;;;;46.92;27.05;;;;;;;-145.50;100.00;65435.88;4884475;29;20138;-52
2021/06/26 10:36:45;;;;;;;48.58;25.75;;;;;;;-145.50;100.00;65435.88;4886703;29;20147;-50
2021/06/26 10:39:23;;;;;;;46.65;27.60;;;;;;;-145.50;100.00;65435.88;4888886;29;20560;-52
2021/06/26 10:42:04;;;;;;;48.80;27.90;;;;;;;-145.50;100.00;65435.88;4886399;29;20570;-49
2021/06/26 10:44:50;;;;;;;44.42;25.90;;;;;;;-145.50;100.00;65435.88;4876269;29;20084;-50
2021/06/26 10:47:51;;;;;;;48.22;28.00;;;;;;;-145.50;100.00;65435.88;4894508;29;20125;-51
2021/06/26 10:51:17;;;;;;;44.63;27.45;;;;;;;-145.50;100.00;65435.88;4885305;29;20087;-50
2021/06/26 10:54:26;;;;;;;41.05;24.83;;;;;;;-145.50;100.00;65435.88;4880761;29;20663;-50
2021/06/26 10:58:01;;;;;;;46.22;26.60;;;;;;;-145.50;100.00;65435.88;4882969;29;20136;-49
2021/06/26 11:00:53;;;;;;;43.80;26.80;;;;;;;-145.50;100.00;65435.88;4890570;29;20252;-51
2021/06/26 11:03:50;;;;;;;46.33;27.30;;;;;;;-145.50;100.00;65435.88;4885898;29;20272;-50